createdAt,value
2018-07-13T00:00:56.974Z,9.10
2018-07-13T00:03:29.343Z,9.27
2018-07-13T00:06:01.997Z,8.60
2018-07-13T00:08:35.948Z,10.93
2018-07-13T00:11:09.270Z,9.90
2018-07-13T00:14:21.024Z,10.20
2018-07-13T00:16:57.404Z,9.87
2018-07-13T00:19:30.180Z,8.77
2018-07-13T00:22:03.960Z,9.43
2018-07-13T00:24:38.041Z,10.87
2018-07-13T00:27:12.222Z,10.60
2018-07-13T00:29:45.996Z,9.90
2018-07-13T00:32:19.490Z,10.83
2018-07-13T00:34:52.038Z,10.60
2018-07-13T00:37:29.895Z,9.77
2018-07-13T00:40:02.563Z,10.48
2018-07-13T00:42:41.369Z,10.97
2018-07-13T00:45:16.569Z,11.23
2018-07-13T00:47:50.255Z,10.83
2018-07-13T00:50:23.129Z,12.20
2018-07-13T00:52:55.653Z,9.70
2018-07-13T00:55:28.371Z,11.50
2018-07-13T00:58:00.817Z,10.07
2018-07-13T01:00:33.409Z,10.60
2018-07-13T01:03:06.591Z,10.50
2018-07-13T01:05:40.004Z,11.17
2018-07-13T01:08:12.562Z,11.23
2018-07-13T01:10:45.682Z,8.87
2018-07-13T01:13:19.449Z,11.80
2018-07-13T01:15:51.827Z,11.70
2018-07-13T01:18:25.170Z,11.70
2018-07-13T01:20:57.604Z,10.93
2018-07-13T01:23:30.238Z,11.40
2018-07-13T01:26:03.541Z,12.50
2018-07-13T01:28:36.044Z,12.90
2018-07-13T01:31:08.526Z,16.43
2018-07-13T01:33:41.697Z,15.03
2018-07-13T01:36:14.616Z,13.83
2018-07-13T01:38:47.382Z,15.73
2018-07-13T01:41:21.217Z,15.60
2018-07-13T01:43:53.744Z,13.60
2018-07-13T01:46:26.565Z,14.20
2018-07-13T01:48:59.538Z,15.30
2018-07-13T01:51:32.213Z,14.97
2018-07-13T01:54:06.597Z,14.40
2018-07-13T01:56:42.509Z,15.43
2018-07-13T01:59:16.576Z,18.60
2018-07-13T02:01:49.162Z,16.27
2018-07-13T02:04:23.137Z,13.83
2018-07-13T02:06:55.742Z,17.30
2018-07-13T02:09:28.521Z,16.97
2018-07-13T02:12:01.347Z,18.07
2018-07-13T02:14:33.864Z,16.03
2018-07-13T02:17:06.869Z,15.17
2018-07-13T02:19:39.857Z,15.87
2018-07-13T02:22:12.925Z,22.33
2018-07-13T02:24:46.742Z,15.33
2018-07-13T02:27:20.655Z,17.50
2018-07-13T02:29:53.899Z,20.57
2018-07-13T02:32:26.413Z,19.23
2018-07-13T02:34:59.250Z,17.87
2018-07-13T02:37:31.825Z,16.03
2018-07-13T02:40:04.985Z,22.73
2018-07-13T02:42:39.062Z,16.00
2018-07-13T02:45:12.929Z,16.23
2018-07-13T02:47:45.414Z,17.63
2018-07-13T02:50:23.517Z,18.10
2018-07-13T02:52:56.026Z,17.77
2018-07-13T02:55:29.310Z,18.83
2018-07-13T02:58:03.121Z,16.70
2018-07-13T03:00:36.885Z,15.73
2018-07-13T03:03:09.766Z,16.40
2018-07-13T03:05:42.658Z,17.00
2018-07-13T03:08:16.430Z,17.83
2018-07-13T03:10:49.100Z,22.67
2018-07-13T03:13:22.285Z,21.90
2018-07-13T03:15:55.006Z,20.40
2018-07-13T03:18:27.572Z,19.50
2018-07-13T03:21:00.607Z,20.93
2018-07-13T03:23:33.078Z,16.73
2018-07-13T03:26:06.668Z,18.83
2018-07-13T03:28:39.574Z,20.00
2018-07-13T03:31:12.194Z,23.57
2018-07-13T03:33:44.874Z,20.40
2018-07-13T03:36:17.772Z,22.87
2018-07-13T03:38:50.432Z,19.57
2018-07-13T03:41:22.923Z,19.67
2018-07-13T03:43:55.743Z,23.30
2018-07-13T03:46:28.420Z,21.50
2018-07-13T03:49:00.785Z,27.53
2018-07-13T03:51:34.304Z,26.98
2018-07-13T03:54:07.538Z,31.50
2018-07-13T03:56:40.886Z,27.13
2018-07-13T03:59:14.637Z,23.87
2018-07-13T04:01:47.205Z,21.23
2018-07-13T04:04:24.216Z,19.60
2018-07-13T04:06:59.401Z,20.47
2018-07-13T04:09:31.617Z,20.50
2018-07-13T04:12:04.501Z,18.87
2018-07-13T04:14:37.035Z,18.93
2018-07-13T04:17:09.742Z,20.30
2018-07-13T04:19:42.279Z,21.63
2018-07-13T04:22:14.917Z,22.97
2018-07-13T04:24:49.138Z,24.97
2018-07-13T04:27:25.153Z,23.93
2018-07-13T04:29:58.996Z,22.17
2018-07-13T04:32:32.129Z,21.87
2018-07-13T04:35:05.472Z,22.10
2018-07-13T04:37:38.018Z,21.13
2018-07-13T04:40:11.927Z,21.87
2018-07-13T04:42:44.432Z,20.80
2018-07-13T04:45:16.251Z,22.23
2018-07-13T04:47:50.783Z,21.67
2018-07-13T04:50:25.276Z,22.63
2018-07-13T04:52:58.773Z,19.77
2018-07-13T04:55:32.213Z,23.10
2018-07-13T04:58:05.276Z,22.40
2018-07-13T05:00:39.901Z,25.60
2018-07-13T05:03:13.278Z,22.87
2018-07-13T05:05:47.130Z,24.50
2018-07-13T05:08:20.001Z,24.57
2018-07-13T05:10:52.669Z,25.13
2018-07-13T05:13:25.899Z,22.17
2018-07-13T05:15:59.562Z,23.13
2018-07-13T05:18:32.298Z,22.80
2018-07-13T05:21:06.466Z,23.60
2018-07-13T05:23:40.514Z,21.27
2018-07-13T05:26:16.066Z,22.37
2018-07-13T05:28:52.957Z,21.03
2018-07-13T05:31:27.086Z,21.83
2018-07-13T05:34:00.846Z,21.97
2018-07-13T05:36:34.949Z,19.90
2018-07-13T05:39:12.793Z,19.80
2018-07-13T05:41:46.054Z,21.75
2018-07-13T05:44:18.522Z,19.40
2018-07-13T05:46:52.249Z,18.27
2018-07-13T05:49:26.816Z,18.93
2018-07-13T05:52:00.441Z,17.63
2018-07-13T05:54:38.902Z,20.03
2018-07-13T05:57:14.112Z,18.17
2018-07-13T05:59:47.430Z,17.70
2018-07-13T06:02:22.353Z,17.53
2018-07-13T06:04:57.230Z,17.00
2018-07-13T06:07:32.092Z,18.25
2018-07-13T06:10:05.346Z,16.70
2018-07-13T06:12:39.112Z,16.80
2018-07-13T06:15:16.948Z,16.93
2018-07-13T06:17:49.466Z,17.00
2018-07-13T06:20:27.602Z,16.70
2018-07-13T06:23:01.084Z,14.30
2018-07-13T06:25:41.105Z,15.80
2018-07-13T06:28:13.694Z,15.80
2018-07-13T06:30:48.002Z,14.03
2018-07-13T06:33:23.400Z,13.47
2018-07-13T06:36:00.154Z,13.50
2018-07-13T06:38:36.550Z,13.67
2018-07-13T06:41:09.976Z,13.73
2018-07-13T06:43:42.541Z,12.60
2018-07-13T06:46:16.436Z,13.07
2018-07-13T06:48:49.113Z,11.00
2018-07-13T06:51:23.700Z,11.60
2018-07-13T06:53:56.590Z,12.40
2018-07-13T06:56:29.432Z,12.20
2018-07-13T06:59:13.931Z,11.30
2018-07-13T07:01:49.553Z,11.37
2018-07-13T07:04:31.426Z,11.50
2018-07-13T07:07:19.588Z,10.20
2018-07-13T07:09:59.172Z,11.80
2018-07-13T07:13:08.536Z,9.47
2018-07-13T07:15:42.136Z,10.00
2018-07-13T07:18:15.248Z,10.43
2018-07-13T07:20:47.892Z,11.40
2018-07-13T07:23:21.569Z,12.97
2018-07-13T07:25:57.307Z,10.23
2018-07-13T07:28:34.030Z,12.13
2018-07-13T07:31:07.465Z,10.67
2018-07-13T07:33:40.352Z,9.83
2018-07-13T07:36:14.426Z,10.43
2018-07-13T07:38:47.783Z,9.37
2018-07-13T07:41:21.890Z,9.43
2018-07-13T07:43:54.967Z,8.77
2018-07-13T07:46:29.312Z,8.83
2018-07-13T07:49:03.066Z,10.43
2018-07-13T07:51:36.137Z,8.10
2018-07-13T07:54:08.646Z,6.97
2018-07-13T07:56:41.636Z,6.57
2018-07-13T07:59:14.209Z,6.07
2018-07-13T08:01:46.794Z,6.03
2018-07-13T08:04:19.604Z,5.37
2018-07-13T08:06:52.793Z,4.87
2018-07-13T08:09:25.125Z,3.57
2018-07-13T08:12:00.242Z,3.93
2018-07-13T08:14:33.643Z,3.83
2018-07-13T08:17:13.009Z,3.93
2018-07-13T08:19:56.643Z,3.37
2018-07-13T08:22:56.190Z,3.93
2018-07-13T08:25:34.200Z,3.93
2018-07-13T08:28:13.744Z,3.53
2018-07-13T08:30:57.419Z,3.37
2018-07-13T08:33:29.992Z,4.20
2018-07-13T08:36:05.031Z,4.00
2018-07-13T08:38:44.752Z,3.30
2018-07-13T08:41:17.588Z,3.30
2018-07-13T08:43:52.551Z,2.70
2018-07-13T08:46:25.031Z,2.63
2018-07-13T08:49:01.300Z,3.13
2018-07-13T08:51:35.476Z,4.60
2018-07-13T08:54:13.884Z,4.13
2018-07-13T08:56:50.080Z,4.22
2018-07-13T08:59:24.772Z,3.90
2018-07-13T09:01:58.424Z,2.60
2018-07-13T09:04:33.162Z,3.27
2018-07-13T09:07:07.729Z,4.60
2018-07-13T09:09:43.057Z,4.90
2018-07-13T09:12:19.124Z,4.28
2018-07-13T09:14:53.054Z,5.03
2018-07-13T09:17:26.573Z,5.40
2018-07-13T09:20:02.461Z,5.30
2018-07-13T09:22:35.607Z,5.37
2018-07-13T09:25:10.309Z,4.23
2018-07-13T09:27:52.967Z,4.27
2018-07-13T09:30:26.977Z,4.40
2018-07-13T09:32:59.580Z,3.60
2018-07-13T09:35:33.978Z,3.80
2018-07-13T09:38:06.699Z,3.27
2018-07-13T09:40:42.140Z,2.67
2018-07-13T09:43:15.671Z,3.60
2018-07-13T09:45:50.130Z,3.47
2018-07-13T09:48:24.611Z,3.30
2018-07-13T09:50:58.820Z,3.10
2018-07-13T09:53:32.204Z,4.17
2018-07-13T09:56:06.679Z,2.77
2018-07-13T09:58:41.807Z,3.20
2018-07-13T10:01:19.816Z,3.53
2018-07-13T10:03:54.470Z,3.83
2018-07-13T10:06:32.521Z,4.13
2018-07-13T10:09:06.486Z,3.80
2018-07-13T10:11:46.126Z,2.43
2018-07-13T10:14:24.145Z,2.77
2018-07-13T10:16:57.108Z,2.87
2018-07-13T10:19:38.607Z,3.10
2018-07-13T10:22:24.438Z,2.80
2018-07-13T10:25:03.666Z,3.27
2018-07-13T10:27:41.180Z,2.30
2018-07-13T10:30:22.353Z,2.80
2018-07-13T10:32:59.315Z,2.43
2018-07-13T10:35:34.528Z,2.57
2018-07-13T10:38:09.496Z,2.83
2018-07-13T10:40:45.072Z,2.40
2018-07-13T10:43:20.471Z,2.30
2018-07-13T10:45:56.043Z,2.53
2018-07-13T10:48:29.645Z,2.40
2018-07-13T10:51:03.889Z,2.10
2018-07-13T10:53:39.155Z,2.57
2018-07-13T10:56:16.036Z,2.50
2018-07-13T10:58:50.301Z,2.50
2018-07-13T11:01:24.970Z,3.03
2018-07-13T11:03:57.733Z,2.33
2018-07-13T11:06:33.023Z,2.03
2018-07-13T11:09:09.432Z,2.37
2018-07-13T11:11:42.180Z,2.17
2018-07-13T11:14:15.137Z,2.47
2018-07-13T11:16:48.681Z,2.50
2018-07-13T11:19:21.481Z,2.62
2018-07-13T11:22:01.923Z,2.33
2018-07-13T11:24:37.828Z,2.22
2018-07-13T11:27:15.645Z,2.03
2018-07-13T11:29:50.852Z,1.90
2018-07-13T11:32:24.964Z,1.90
2018-07-13T11:34:57.553Z,1.97
2018-07-13T11:37:31.009Z,2.20
2018-07-13T11:40:06.545Z,2.47
2018-07-13T11:42:42.644Z,2.53
2018-07-13T11:45:19.511Z,2.20
2018-07-13T11:47:53.158Z,2.43
2018-07-13T11:50:25.943Z,2.85
2018-07-13T11:53:00.578Z,2.40
2018-07-13T11:55:33.156Z,1.83
2018-07-13T11:58:07.669Z,2.40
2018-07-13T12:00:42.805Z,2.50
2018-07-13T12:03:17.216Z,2.63
2018-07-13T12:05:49.810Z,2.67
2018-07-13T12:08:25.725Z,2.67
2018-07-13T12:11:02.728Z,2.43
2018-07-13T12:13:39.216Z,2.17
2018-07-13T12:16:13.219Z,2.53
2018-07-13T12:18:47.944Z,2.23
2018-07-13T12:21:21.833Z,2.73
2018-07-13T12:24:04.602Z,2.30
2018-07-13T12:27:04.850Z,2.70
2018-07-13T12:30:09.749Z,2.55
2018-07-13T12:32:52.888Z,2.37
2018-07-13T12:35:35.012Z,1.90
2018-07-13T12:38:19.151Z,2.47
2018-07-13T12:41:15.039Z,2.70
2018-07-13T12:43:53.537Z,2.10
2018-07-13T12:46:30.868Z,2.33
2018-07-13T12:49:08.472Z,2.83
2018-07-13T12:51:43.752Z,2.70
2018-07-13T12:54:19.250Z,2.50
2018-07-13T12:56:53.623Z,2.80
2018-07-13T12:59:29.383Z,2.27
2018-07-13T13:02:05.302Z,2.30
2018-07-13T13:04:37.881Z,2.03
2018-07-13T13:07:11.712Z,2.40
2018-07-13T13:09:46.536Z,2.10
2018-07-13T13:12:22.692Z,2.07
2018-07-13T13:14:57.554Z,2.43
2018-07-13T13:17:38.488Z,2.70
2018-07-13T13:20:18.684Z,2.60
2018-07-13T13:22:59.080Z,2.47
2018-07-13T13:25:36.806Z,3.20
2018-07-13T13:28:15.240Z,2.13
2018-07-13T13:30:51.883Z,2.53
2018-07-13T13:33:30.648Z,2.20
2018-07-13T13:36:05.134Z,2.13
2018-07-13T13:38:42.782Z,2.40
2018-07-13T13:41:18.121Z,2.47
2018-07-13T13:44:03.466Z,2.17
2018-07-13T13:46:39.259Z,2.90
2018-07-13T13:49:15.173Z,2.80
2018-07-13T13:51:49.260Z,2.20
2018-07-13T13:54:27.368Z,2.70
2018-07-13T13:57:03.959Z,2.57
2018-07-13T13:59:37.469Z,2.57
2018-07-13T14:02:11.870Z,2.30
2018-07-13T14:04:46.484Z,2.90
2018-07-13T14:07:21.102Z,2.77
2018-07-13T14:09:54.639Z,2.37
2018-07-13T14:12:30.634Z,2.30
2018-07-13T14:15:05.170Z,2.90
2018-07-13T14:17:38.301Z,2.53
2018-07-13T14:20:15.589Z,2.50
2018-07-13T14:22:56.139Z,2.50
2018-07-13T14:25:31.761Z,2.57
2018-07-13T14:28:06.041Z,2.35
2018-07-13T14:30:38.647Z,2.58
2018-07-13T14:33:15.708Z,2.40
2018-07-13T14:35:50.624Z,2.70
2018-07-13T14:38:24.529Z,3.00
2018-07-13T14:40:59.859Z,3.07
2018-07-13T14:46:06.632Z,3.10
2018-07-13T14:48:46.403Z,2.67
2018-07-13T14:51:20.567Z,3.20
2018-07-13T14:53:56.707Z,2.80
2018-07-13T14:56:32.691Z,2.50
2018-07-13T14:59:07.805Z,3.07
2018-07-13T15:01:41.645Z,2.90
2018-07-13T15:04:18.014Z,2.80
2018-07-13T15:07:03.070Z,3.00
2018-07-13T15:09:35.914Z,3.00
2018-07-13T15:12:09.832Z,2.90
2018-07-13T15:14:44.493Z,2.70
2018-07-13T15:17:20.417Z,2.70
2018-07-13T15:19:53.897Z,3.00
2018-07-13T15:22:39.529Z,2.80
2018-07-13T15:25:19.779Z,2.80
2018-07-13T15:27:52.620Z,2.40
2018-07-13T15:30:28.324Z,2.70
2018-07-13T15:33:09.130Z,2.93
2018-07-13T15:35:44.390Z,2.63
2018-07-13T15:38:23.038Z,2.77
2018-07-13T15:40:58.165Z,2.90
2018-07-13T15:43:31.091Z,3.23
2018-07-13T15:46:06.593Z,2.57
2018-07-13T15:48:40.214Z,2.83
2018-07-13T15:51:13.460Z,2.63
2018-07-13T15:53:48.233Z,2.73
2018-07-13T15:56:21.788Z,3.20
2018-07-13T15:58:55.426Z,2.90
2018-07-13T16:01:29.359Z,2.83
2018-07-13T16:04:01.943Z,2.77
2018-07-13T16:06:35.563Z,3.03
2018-07-13T16:09:08.558Z,2.60
2018-07-13T16:11:45.823Z,2.80
2018-07-13T16:14:18.525Z,3.00
2018-07-13T16:16:54.231Z,3.30
2018-07-13T16:19:28.831Z,2.77
2018-07-13T16:22:04.321Z,2.90
2018-07-13T16:24:38.347Z,2.87
2018-07-13T16:27:11.193Z,2.80
2018-07-13T16:29:47.680Z,2.50
2018-07-13T16:32:20.585Z,2.70
2018-07-13T16:34:53.757Z,3.08
2018-07-13T16:37:27.849Z,2.30
2018-07-13T16:40:02.532Z,2.57
2018-07-13T16:42:35.062Z,2.57
2018-07-13T16:45:07.074Z,2.50
2018-07-13T16:47:40.970Z,2.40
2018-07-13T16:50:14.324Z,2.50
2018-07-13T16:52:48.248Z,2.42
2018-07-13T16:55:30.837Z,2.27
2018-07-13T16:58:07.727Z,3.27
2018-07-13T17:00:41.253Z,2.60
2018-07-13T17:03:15.485Z,2.30
2018-07-13T17:05:47.990Z,2.90
2018-07-13T17:08:37.792Z,2.53
2018-07-13T17:11:15.211Z,2.40
2018-07-13T17:13:51.169Z,2.20
2018-07-13T17:16:28.210Z,2.70
2018-07-13T17:19:01.063Z,2.70
2018-07-13T17:21:35.524Z,2.27
2018-07-13T17:24:09.011Z,2.77
2018-07-13T17:26:44.753Z,2.90
2018-07-13T17:29:18.878Z,2.40
2018-07-13T17:31:54.556Z,2.53
2018-07-13T17:34:29.308Z,2.33
2018-07-13T17:37:03.430Z,2.53
2018-07-13T17:39:37.253Z,2.72
2018-07-13T17:42:09.893Z,2.90
2018-07-13T17:44:46.502Z,2.77
2018-07-13T17:47:20.107Z,3.10
2018-07-13T17:49:53.498Z,3.00
2018-07-13T17:52:28.161Z,2.50
2018-07-13T17:55:01.025Z,2.60
2018-07-13T17:57:36.312Z,2.80
2018-07-13T18:00:14.086Z,2.30
2018-07-13T18:02:50.066Z,2.30
2018-07-13T18:05:25.778Z,2.67
2018-07-13T18:08:00.538Z,2.60
2018-07-13T18:10:36.798Z,2.50
2018-07-13T18:13:10.980Z,2.77
2018-07-13T18:15:45.851Z,2.30
2018-07-13T18:18:19.660Z,2.63
2018-07-13T18:20:54.719Z,2.80
2018-07-13T18:23:29.112Z,2.50
2018-07-13T18:26:04.604Z,2.40
2018-07-13T18:28:50.781Z,3.07
2018-07-13T18:31:31.717Z,2.70
2018-07-13T18:34:05.630Z,2.55
2018-07-13T18:36:39.122Z,2.83
2018-07-13T18:39:15.692Z,2.83
2018-07-13T18:41:50.034Z,2.77
2018-07-13T18:44:22.856Z,2.63
2018-07-13T18:47:02.313Z,2.50
2018-07-13T18:49:36.356Z,3.05
2018-07-13T18:52:11.134Z,2.90
2018-07-13T18:54:44.976Z,3.10
2018-07-13T18:57:20.290Z,2.87
2018-07-13T18:59:55.146Z,3.10
2018-07-13T19:02:34.626Z,3.10
2018-07-13T19:05:11.467Z,3.03
2018-07-13T19:07:52.265Z,2.80
2018-07-13T19:10:28.932Z,3.00
2018-07-13T19:13:02.584Z,2.97
2018-07-13T19:15:37.300Z,3.10
2018-07-13T19:18:12.514Z,3.07
2018-07-13T19:20:51.511Z,3.00
2018-07-13T19:23:26.229Z,2.67
2018-07-13T19:26:02.560Z,2.90
2018-07-13T19:28:38.529Z,3.00
2018-07-13T19:31:14.996Z,2.90
2018-07-13T19:33:52.050Z,3.07
2018-07-13T19:36:28.440Z,3.00
2018-07-13T19:39:04.310Z,3.77
2018-07-13T19:41:46.557Z,3.40
2018-07-13T19:44:27.952Z,3.13
2018-07-13T19:47:07.658Z,3.45
2018-07-13T19:49:47.537Z,3.43
2018-07-13T19:52:27.363Z,3.80
2018-07-13T19:55:07.822Z,3.70
2018-07-13T19:57:45.578Z,3.50
2018-07-13T20:00:25.466Z,3.80
2018-07-13T20:03:04.763Z,2.67
2018-07-13T20:05:48.122Z,3.83
2018-07-13T20:08:30.753Z,3.47
2018-07-13T20:11:08.506Z,3.40
2018-07-13T20:13:44.247Z,3.75
2018-07-13T20:16:25.958Z,3.80
2018-07-13T20:19:01.593Z,3.23
2018-07-13T20:21:41.438Z,3.40
2018-07-13T20:24:17.025Z,3.57
2018-07-13T20:26:52.137Z,3.47
2018-07-13T20:29:29.766Z,3.70
2018-07-13T20:32:04.921Z,3.85
2018-07-13T20:34:39.126Z,4.10
2018-07-13T20:37:15.879Z,4.20
2018-07-13T20:39:53.377Z,4.27
2018-07-13T20:42:27.745Z,3.90
2018-07-13T20:45:09.586Z,4.20
2018-07-13T20:47:46.045Z,4.53
2018-07-13T20:50:22.426Z,4.40
2018-07-13T20:53:06.747Z,4.23
2018-07-13T20:55:46.984Z,4.53
2018-07-13T20:58:23.578Z,4.87
2018-07-13T21:00:59.516Z,4.47
2018-07-13T21:03:36.504Z,4.73
2018-07-13T21:06:12.477Z,5.37
2018-07-13T21:08:47.442Z,5.07
2018-07-13T21:11:33.663Z,4.85
2018-07-13T21:14:17.173Z,5.10
2018-07-13T21:16:53.168Z,4.97
2018-07-13T21:19:27.129Z,5.80
2018-07-13T21:22:00.980Z,5.40
2018-07-13T21:24:34.484Z,5.40
2018-07-13T21:27:07.838Z,4.37
2018-07-13T21:29:43.004Z,6.03
2018-07-13T21:32:15.554Z,5.60
2018-07-13T21:34:49.321Z,5.13
2018-07-13T21:37:22.597Z,6.47
2018-07-13T21:39:58.472Z,7.00
2018-07-13T21:42:33.531Z,6.50
2018-07-13T21:45:08.488Z,5.90
2018-07-13T21:47:44.794Z,6.60
2018-07-13T21:50:18.643Z,6.37
2018-07-13T21:52:53.752Z,6.07
2018-07-13T21:55:35.983Z,6.77
2018-07-13T21:58:17.746Z,6.00
2018-07-13T22:00:52.308Z,5.80
2018-07-13T22:03:25.017Z,6.90
2018-07-13T22:05:59.029Z,6.75
2018-07-13T22:08:39.208Z,6.63
2018-07-13T22:11:11.796Z,6.87
2018-07-13T22:13:44.755Z,6.30
2018-07-13T22:16:17.307Z,6.50
2018-07-13T22:18:52.765Z,6.60
2018-07-13T22:21:27.470Z,6.90
2018-07-13T22:24:01.938Z,8.53
2018-07-13T22:26:35.616Z,8.83
2018-07-13T22:29:09.421Z,8.77
2018-07-13T22:31:45.453Z,7.75
2018-07-13T22:34:19.858Z,8.15
2018-07-13T22:36:56.880Z,8.30
2018-07-13T22:39:29.353Z,7.22
2018-07-13T22:42:02.373Z,7.00
2018-07-13T22:44:34.933Z,6.68
2018-07-13T22:47:09.825Z,6.30
2018-07-13T22:49:44.275Z,6.77
2018-07-13T22:52:25.896Z,6.43
2018-07-13T22:55:00.257Z,5.97
2018-07-13T22:57:32.764Z,6.72
2018-07-13T23:00:10.728Z,5.40
2018-07-13T23:02:46.077Z,6.30
2018-07-13T23:05:22.097Z,6.10
2018-07-13T23:07:58.070Z,5.87
2018-07-13T23:10:31.808Z,5.80
2018-07-13T23:13:04.736Z,6.73
2018-07-13T23:15:37.549Z,6.53
2018-07-13T23:18:11.556Z,5.93
2018-07-13T23:20:43.967Z,6.57
2018-07-13T23:23:17.791Z,6.90
2018-07-13T23:25:51.676Z,6.50
2018-07-13T23:28:26.661Z,6.03
2018-07-13T23:31:01.577Z,7.33
2018-07-13T23:33:34.079Z,7.63
2018-07-13T23:36:07.550Z,8.07
2018-07-13T23:38:40.399Z,6.50
2018-07-13T23:41:13.034Z,7.07
2018-07-13T23:43:48.589Z,8.23
2018-07-13T23:46:22.104Z,7.90
2018-07-13T23:48:55.414Z,8.27
2018-07-13T23:51:28.052Z,9.03
2018-07-13T23:54:04.936Z,7.80
2018-07-13T23:56:40.499Z,8.00
2018-07-13T23:59:13.013Z,8.13
